Time;durP1;ratioP1;P1;durP2;ratioP2;P2;SDS_P1;SDS_P2;PMS_P1;PMS_P2;Temp;Humidity;BMP_temperature;BMP_pressure;BME280_temperature;BME280_humidity;BME280_pressure;Samples;Min_cycle;Max_cycle;Signal;HPM_P1;HPM_P2
2023/05/07 00:00:19;;;;;;;15.50;8.13;;;;;;;;;;5090241;28;20025;-63
2023/05/07 00:02:46;;;;;;;14.05;8.05;;;;;;;;;;5092240;28;20028;-63
2023/05/07 00:05:13;;;;;;;9.25;7.45;;;;;;;;;;5093132;28;20020;-63
2023/05/07 00:07:40;;;;;;;18.00;8.45;;;;;;;;;;5096065;28;20024;-63
2023/05/07 00:10:07;;;;;;;13.18;8.88;;;;;;;;;;5095845;28;20013;-63
2023/05/07 00:12:34;;;;;;;9.88;7.85;;;;;;;;;;5092562;28;20028;-63
2023/05/07 00:15:02;;;;;;;10.27;7.22;;;;;;;;;;5090551;28;20067;-62
2023/05/07 00:17:29;;;;;;;12.23;7.53;;;;;;;;;;5090848;28;20047;-63
2023/05/07 00:19:56;;;;;;;13.65;7.45;;;;;;;;;;5090855;28;20060;-64
2023/05/07 00:22:22;;;;;;;12.27;7.50;;;;;;;;;;5093183;28;20478;-64
2023/05/07 00:24:49;;;;;;;11.52;8.15;;;;;;;;;;5095794;28;20028;-63
2023/05/07 00:27:16;;;;;;;13.15;9.00;;;;;;;;;;5095439;28;20497;-63
2023/05/07 00:29:43;;;;;;;9.73;7.65;;;;;;;;;;5095525;28;20050;-63
2023/05/07 00:32:10;;;;;;;10.27;7.10;;;;;;;;;;5095331;28;20051;-63
2023/05/07 00:34:45;;;;;;;17.60;9.55;;;;;;;;;;5092630;28;20378;-62
2023/05/07 00:37:12;;;;;;;13.55;8.85;;;;;;;;;;5090634;28;20032;-63
2023/05/07 00:39:39;;;;;;;8.30;6.88;;;;;;;;;;5090296;28;20463;-63
2023/05/07 00:42:06;;;;;;;15.18;9.25;;;;;;;;;;5090290;28;20020;-63
2023/05/07 00:44:32;;;;;;;19.00;9.88;;;;;;;;;;5091823;28;20020;-63
2023/05/07 00:47:02;;;;;;;11.93;8.38;;;;;;;;;;5095366;28;20074;-63
2023/05/07 00:49:36;;;;;;;15.63;8.35;;;;;;;;;;5094784;28;20024;-63
2023/05/07 00:52:03;;;;;;;16.13;9.98;;;;;;;;;;5094890;28;20036;-63
2023/05/07 00:54:29;;;;;;;12.75;8.93;;;;;;;;;;5094993;28;20119;-63
2023/05/07 00:56:56;;;;;;;10.35;8.00;;;;;;;;;;5092869;28;20572;-63
2023/05/07 00:59:24;;;;;;;22.50;8.48;;;;;;;;;;5090107;28;20062;-62
2023/05/07 01:01:51;;;;;;;15.80;9.18;;;;;;;;;;5089601;28;20107;-63
2023/05/07 01:04:18;;;;;;;18.85;8.68;;;;;;;;;;5089749;28;20028;-63
2023/05/07 01:06:46;;;;;;;14.63;8.27;;;;;;;;;;5090645;28;20073;-62
2023/05/07 01:09:13;;;;;;;12.85;9.23;;;;;;;;;;5094638;28;20021;-63
2023/05/07 01:11:40;;;;;;;18.15;9.07;;;;;;;;;;5094589;28;20463;-62
2023/05/07 01:14:07;;;;;;;15.63;8.80;;;;;;;;;;5094918;28;20032;-63
2023/05/07 01:16:34;;;;;;;18.00;9.27;;;;;;;;;;5094096;28;20039;-63
2023/05/07 01:19:01;;;;;;;10.63;8.00;;;;;;;;;;5092898;28;20027;-63
2023/05/07 01:21:31;;;;;;;15.38;8.35;;;;;;;;;;5089733;28;20104;-64
2023/05/07 01:23:58;;;;;;;13.60;8.30;;;;;;;;;;5089159;28;20043;-62
2023/05/07 01:26:25;;;;;;;11.65;7.72;;;;;;;;;;5089547;28;20017;-64
2023/05/07 01:28:52;;;;;;;15.07;10.32;;;;;;;;;;5090287;28;20046;-63
2023/05/07 01:31:19;;;;;;;17.45;8.02;;;;;;;;;;5094478;28;20036;-63
2023/05/07 01:33:46;;;;;;;10.98;8.25;;;;;;;;;;5094518;28;20108;-63
2023/05/07 01:36:14;;;;;;;15.93;9.53;;;;;;;;;;5094268;28;20016;-63
2023/05/07 01:38:42;;;;;;;12.57;8.30;;;;;;;;;;5094609;28;20467;-62
2023/05/07 01:41:09;;;;;;;9.37;8.00;;;;;;;;;;5093024;28;20024;-62
2023/05/07 01:43:35;;;;;;;11.13;7.93;;;;;;;;;;5089295;28;20024;-62
2023/05/07 01:46:03;;;;;;;17.00;10.50;;;;;;;;;;5089110;28;20794;-63
2023/05/07 01:48:30;;;;;;;13.52;8.65;;;;;;;;;;5089223;28;20074;-64
2023/05/07 01:50:57;;;;;;;24.13;10.47;;;;;;;;;;5089232;28;20047;-63
2023/05/07 01:53:23;;;;;;;13.10;9.90;;;;;;;;;;5093719;28;20490;-63
2023/05/07 01:55:50;;;;;;;11.13;8.03;;;;;;;;;;5094183;28;20024;-63
2023/05/07 01:58:17;;;;;;;15.93;9.80;;;;;;;;;;5093951;28;20024;-63
2023/05/07 02:00:44;;;;;;;14.70;9.93;;;;;;;;;;5093651;28;20077;-63
2023/05/07 02:03:10;;;;;;;9.63;7.60;;;;;;;;;;5093851;28;20013;-62
2023/05/07 02:05:37;;;;;;;15.90;8.77;;;;;;;;;;5088777;28;20027;-63
2023/05/07 02:08:04;;;;;;;12.63;9.03;;;;;;;;;;5088764;28;20039;-62
2023/05/07 02:10:31;;;;;;;13.90;8.00;;;;;;;;;;5088613;28;20024;-62
2023/05/07 02:12:58;;;;;;;16.27;9.90;;;;;;;;;;5088446;28;20030;-63
2023/05/07 02:15:25;;;;;;;10.23;7.57;;;;;;;;;;5092981;28;20058;-63
2023/05/07 02:18:02;;;;;;;12.73;8.67;;;;;;;;;;5093586;28;20107;-62
2023/05/07 02:20:28;;;;;;;15.33;8.10;;;;;;;;;;5093705;28;20028;-62
2023/05/07 02:22:55;;;;;;;10.53;8.27;;;;;;;;;;5093614;28;20032;-63
2023/05/07 02:25:22;;;;;;;10.73;7.50;;;;;;;;;;5093579;28;20088;-62
2023/05/07 02:27:49;;;;;;;14.43;9.13;;;;;;;;;;5088073;28;20498;-63
2023/05/07 02:30:15;;;;;;;17.80;7.60;;;;;;;;;;5087597;28;20032;-63
2023/05/07 02:32:42;;;;;;;12.17;8.47;;;;;;;;;;5088236;28;20032;-62
2023/05/07 02:35:09;;;;;;;14.33;7.60;;;;;;;;;;5087950;28;20016;-62
2023/05/07 02:37:36;;;;;;;14.20;8.87;;;;;;;;;;5091753;28;20020;-62
2023/05/07 02:40:04;;;;;;;14.73;9.00;;;;;;;;;;5093321;28;20093;-62
2023/05/07 02:42:31;;;;;;;15.63;9.00;;;;;;;;;;5093038;28;20421;-62
2023/05/07 02:44:57;;;;;;;7.80;6.30;;;;;;;;;;5093006;28;20016;-62
2023/05/07 02:47:26;;;;;;;11.50;8.17;;;;;;;;;;5093114;28;20092;-63
2023/05/07 02:49:54;;;;;;;10.77;8.73;;;;;;;;;;5088804;28;20115;-63
2023/05/07 02:52:20;;;;;;;15.13;9.97;;;;;;;;;;5087696;28;20089;-62
2023/05/07 02:54:47;;;;;;;12.23;8.90;;;;;;;;;;5087978;28;20043;-62
2023/05/07 02:57:14;;;;;;;17.07;9.83;;;;;;;;;;5087997;28;20341;-63
2023/05/07 02:59:41;;;;;;;16.47;10.47;;;;;;;;;;5090897;28;20026;-63
2023/05/07 03:02:08;;;;;;;10.47;8.80;;;;;;;;;;5092855;28;20060;-62
2023/05/07 03:04:34;;;;;;;11.20;7.67;;;;;;;;;;5092951;28;20019;-62
2023/05/07 03:07:01;;;;;;;13.07;8.00;;;;;;;;;;5092842;28;20078;-62
2023/05/07 03:09:28;;;;;;;9.07;6.93;;;;;;;;;;5092676;28;20020;-62
2023/05/07 03:11:55;;;;;;;13.93;8.67;;;;;;;;;;5088873;28;20027;-64
2023/05/07 03:14:21;;;;;;;12.90;9.87;;;;;;;;;;5087848;28;20020;-62
2023/05/07 03:16:48;;;;;;;9.97;7.43;;;;;;;;;;5087658;28;20053;-62
2023/05/07 03:19:15;;;;;;;16.33;8.03;;;;;;;;;;5087434;28;20076;-63
2023/05/07 03:21:42;;;;;;;15.50;8.83;;;;;;;;;;5090075;28;20028;-62
2023/05/07 03:24:08;;;;;;;14.67;8.67;;;;;;;;;;5092692;28;20024;-62
2023/05/07 03:26:35;;;;;;;11.70;7.30;;;;;;;;;;5092581;28;20097;-62
2023/05/07 03:29:02;;;;;;;10.47;6.43;;;;;;;;;;5092283;28;20031;-63
2023/05/07 03:31:29;;;;;;;19.77;8.90;;;;;;;;;;5092492;28;20030;-62
2023/05/07 03:33:56;;;;;;;15.43;9.07;;;;;;;;;;5089915;28;21025;-62
2023/05/07 03:36:25;;;;;;;14.00;7.77;;;;;;;;;;5087270;28;20024;-62
2023/05/07 03:38:51;;;;;;;18.67;10.20;;;;;;;;;;5087312;28;20030;-62
2023/05/07 03:41:18;;;;;;;18.27;8.67;;;;;;;;;;5090543;28;20067;-62
2023/05/07 03:43:45;;;;;;;9.43;7.17;;;;;;;;;;5093212;28;20024;-62
2023/05/07 03:46:11;;;;;;;18.43;9.00;;;;;;;;;;5096591;28;20077;-62
2023/05/07 03:48:38;;;;;;;11.33;7.97;;;;;;;;;;5096132;28;20025;-62
2023/05/07 03:51:05;;;;;;;10.87;7.20;;;;;;;;;;5096566;28;20024;-62
2023/05/07 03:53:32;;;;;;;8.83;6.30;;;;;;;;;;5096146;28;20036;-62
2023/05/07 03:55:58;;;;;;;19.57;8.83;;;;;;;;;;5094746;28;20028;-62
2023/05/07 03:58:25;;;;;;;38.63;8.17;;;;;;;;;;5091242;28;20099;-62
2023/05/07 04:00:52;;;;;;;10.00;6.87;;;;;;;;;;5091368;28;20056;-62
2023/05/07 04:03:19;;;;;;;8.40;5.87;;;;;;;;;;5091222;28;20104;-62
2023/05/07 04:05:46;;;;;;;11.57;7.00;;;;;;;;;;5091512;28;20032;-62
2023/05/07 04:08:12;;;;;;;17.80;7.93;;;;;;;;;;5096181;28;20019;-62
2023/05/07 04:10:39;;;;;;;9.73;7.73;;;;;;;;;;5095847;28;20028;-63
2023/05/07 04:13:06;;;;;;;13.93;8.57;;;;;;;;;;5096180;28;20509;-62
2023/05/07 04:15:33;;;;;;;10.57;5.80;;;;;;;;;;5095991;28;20028;-62
2023/05/07 04:18:00;;;;;;;8.27;5.80;;;;;;;;;;5095010;28;20024;-61
2023/05/07 04:20:26;;;;;;;9.07;6.07;;;;;;;;;;5090788;28;20081;-62
2023/05/07 04:22:53;;;;;;;12.27;6.83;;;;;;;;;;5090914;28;20028;-62
2023/05/07 04:25:20;;;;;;;11.03;7.07;;;;;;;;;;5090372;28;20086;-62
2023/05/07 04:27:46;;;;;;;8.57;6.37;;;;;;;;;;5090848;28;20444;-62
2023/05/07 04:30:13;;;;;;;17.53;5.97;;;;;;;;;;5095690;28;20448;-62
2023/05/07 04:32:41;;;;;;;9.57;6.03;;;;;;;;;;5095757;28;20035;-62
2023/05/07 04:35:07;;;;;;;10.57;6.90;;;;;;;;;;5095777;28;20028;-62
2023/05/07 04:37:34;;;;;;;8.60;6.77;;;;;;;;;;5095644;28;20024;-61
2023/05/07 04:40:02;;;;;;;7.50;4.90;;;;;;;;;;5095467;28;20379;-62
2023/05/07 04:42:29;;;;;;;12.03;5.50;;;;;;;;;;5090007;28;20020;-62
2023/05/07 04:44:56;;;;;;;5.60;4.73;;;;;;;;;;5090304;28;20047;-62
2023/05/07 04:47:23;;;;;;;5.77;4.43;;;;;;;;;;5090329;28;20114;-62
2023/05/07 04:49:49;;;;;;;9.50;5.40;;;;;;;;;;5090229;28;20376;-62
2023/05/07 04:52:16;;;;;;;11.07;7.13;;;;;;;;;;5093543;28;20032;-61
2023/05/07 04:54:43;;;;;;;8.77;5.93;;;;;;;;;;5095309;28;20032;-62
2023/05/07 04:57:10;;;;;;;8.77;6.30;;;;;;;;;;5095366;28;20024;-62
2023/05/07 04:59:37;;;;;;;8.80;6.00;;;;;;;;;;5095125;28;20498;-62
2023/05/07 05:02:06;;;;;;;11.30;7.00;;;;;;;;;;5094465;28;20034;-62
2023/05/07 05:04:33;;;;;;;11.57;6.97;;;;;;;;;;5090276;28;20360;-62
2023/05/07 05:07:00;;;;;;;10.90;7.60;;;;;;;;;;5090056;28;20529;-62
2023/05/07 05:09:26;;;;;;;10.53;7.00;;;;;;;;;;5090144;28;20027;-63
2023/05/07 05:11:53;;;;;;;12.37;8.20;;;;;;;;;;5089841;28;20077;-62
2023/05/07 05:14:20;;;;;;;12.20;7.43;;;;;;;;;;5093715;28;20097;-62
2023/05/07 05:16:46;;;;;;;10.13;7.13;;;;;;;;;;5094738;28;20024;-62
2023/05/07 05:19:13;;;;;;;16.53;7.90;;;;;;;;;;5094675;28;20052;-62
2023/05/07 05:21:40;;;;;;;19.70;8.37;;;;;;;;;;5094708;28;20020;-62
2023/05/07 05:24:07;;;;;;;10.63;5.27;;;;;;;;;;5094814;28;20028;-62
2023/05/07 05:26:34;;;;;;;16.37;6.97;;;;;;;;;;5090746;28;20436;-62
2023/05/07 05:29:01;;;;;;;8.57;5.53;;;;;;;;;;5089453;28;20028;-62
2023/05/07 05:31:27;;;;;;;7.33;5.53;;;;;;;;;;5089519;28;20024;-62
2023/05/07 05:33:54;;;;;;;7.17;5.63;;;;;;;;;;5089319;28;20131;-63
2023/05/07 05:36:21;;;;;;;7.17;4.97;;;;;;;;;;5092642;28;20028;-62
2023/05/07 05:38:48;;;;;;;18.43;6.20;;;;;;;;;;5093956;28;20070;-62
2023/05/07 05:41:14;;;;;;;8.70;5.53;;;;;;;;;;5094528;28;20024;-62
2023/05/07 05:43:41;;;;;;;13.73;6.30;;;;;;;;;;5094396;28;20089;-62
2023/05/07 05:46:10;;;;;;;5.67;4.47;;;;;;;;;;5094421;28;20099;-61
2023/05/07 05:48:37;;;;;;;7.50;4.77;;;;;;;;;;5091205;28;20031;-62
2023/05/07 05:51:04;;;;;;;9.90;6.17;;;;;;;;;;5089343;28;20483;-62
2023/05/07 05:53:31;;;;;;;4.80;3.67;;;;;;;;;;5089030;28;20028;-62
2023/05/07 05:55:57;;;;;;;9.20;5.07;;;;;;;;;;5088390;28;20028;-62
2023/05/07 05:58:24;;;;;;;6.43;4.37;;;;;;;;;;5091472;28;20020;-62
2023/05/07 06:00:52;;;;;;;10.63;4.97;;;;;;;;;;5094018;28;20035;-62
2023/05/07 06:03:19;;;;;;;8.43;4.73;;;;;;;;;;5093827;28;20027;-61
2023/05/07 06:05:45;;;;;;;8.10;6.00;;;;;;;;;;5093875;28;20024;-62
2023/05/07 06:08:12;;;;;;;6.67;4.63;;;;;;;;;;5093892;28;20031;-62
2023/05/07 06:10:39;;;;;;;8.07;4.73;;;;;;;;;;5091277;28;20143;-61
2023/05/07 06:13:06;;;;;;;7.30;4.77;;;;;;;;;;5088483;28;20036;-62
2023/05/07 06:15:33;;;;;;;6.37;3.93;;;;;;;;;;5088447;28;20095;-62
2023/05/07 06:17:59;;;;;;;4.03;2.93;;;;;;;;;;5088460;28;20024;-62
2023/05/07 06:20:26;;;;;;;7.60;4.17;;;;;;;;;;5090282;28;20025;-62
2023/05/07 06:22:53;;;;;;;8.17;5.57;;;;;;;;;;5093532;28;20024;-62
2023/05/07 06:25:20;;;;;;;8.07;4.43;;;;;;;;;;5093483;28;20514;-62
2023/05/07 06:27:46;;;;;;;5.53;3.27;;;;;;;;;;5093394;28;20047;-61
2023/05/07 06:30:13;;;;;;;5.73;3.57;;;;;;;;;;5093275;28;20040;-61
2023/05/07 06:32:41;;;;;;;7.77;5.43;;;;;;;;;;5091008;28;20085;-62
2023/05/07 06:35:08;;;;;;;9.03;5.87;;;;;;;;;;5088450;28;20032;-62
2023/05/07 06:37:38;;;;;;;10.00;6.40;;;;;;;;;;5088240;28;20704;-62
2023/05/07 06:40:05;;;;;;;9.20;5.77;;;;;;;;;;5088194;28;20471;-62
2023/05/07 06:42:32;;;;;;;9.53;4.80;;;;;;;;;;5089207;28;20028;-61
2023/05/07 06:44:59;;;;;;;6.17;4.57;;;;;;;;;;5093100;28;20028;-62
2023/05/07 06:47:26;;;;;;;7.67;4.73;;;;;;;;;;5093118;28;20020;-62
2023/05/07 06:49:52;;;;;;;9.47;5.80;;;;;;;;;;5092807;28;20024;-61
2023/05/07 06:52:19;;;;;;;7.27;4.63;;;;;;;;;;5092903;28;20138;-62
2023/05/07 06:54:46;;;;;;;8.83;5.30;;;;;;;;;;5091846;28;20027;-62
2023/05/07 06:57:13;;;;;;;9.00;6.00;;;;;;;;;;5087907;28;20049;-62
2023/05/07 06:59:40;;;;;;;7.47;5.13;;;;;;;;;;5087889;28;20028;-61
2023/05/07 07:02:07;;;;;;;6.00;4.60;;;;;;;;;;5087852;28;20027;-62
2023/05/07 07:04:33;;;;;;;11.50;5.40;;;;;;;;;;5088027;28;20378;-62
2023/05/07 07:07:00;;;;;;;10.80;4.67;;;;;;;;;;5092835;28;20024;-62
2023/05/07 07:09:27;;;;;;;4.70;4.20;;;;;;;;;;5092383;28;20016;-62
2023/05/07 07:11:54;;;;;;;11.77;5.77;;;;;;;;;;5092719;28;20374;-62
2023/05/07 07:14:21;;;;;;;16.83;6.33;;;;;;;;;;5092538;28;20016;-62
2023/05/07 07:16:47;;;;;;;11.43;5.77;;;;;;;;;;5091980;28;20364;-62
2023/05/07 07:19:17;;;;;;;9.93;6.00;;;;;;;;;;5087474;28;20089;-62
2023/05/07 07:21:44;;;;;;;5.23;4.23;;;;;;;;;;5087456;28;20425;-61
2023/05/07 07:24:11;;;;;;;12.00;5.00;;;;;;;;;;5087645;28;20027;-62
2023/05/07 07:26:39;;;;;;;9.23;5.10;;;;;;;;;;5087218;28;20026;-62
2023/05/07 07:29:06;;;;;;;6.73;4.87;;;;;;;;;;5092225;28;20032;-62
2023/05/07 07:31:33;;;;;;;7.73;5.43;;;;;;;;;;5092736;28;20055;-61
2023/05/07 07:34:00;;;;;;;11.50;6.27;;;;;;;;;;5092313;28;20047;-62
2023/05/07 07:36:27;;;;;;;7.17;5.20;;;;;;;;;;5092482;28;20031;-62
2023/05/07 07:38:54;;;;;;;10.77;5.40;;;;;;;;;;5092474;28;20144;-61
2023/05/07 07:41:21;;;;;;;4.67;3.90;;;;;;;;;;5087299;28;20042;-62
2023/05/07 07:43:48;;;;;;;15.93;5.17;;;;;;;;;;5087105;28;20013;-61
2023/05/07 07:46:14;;;;;;;5.03;3.63;;;;;;;;;;5087279;28;20020;-62
2023/05/07 07:48:41;;;;;;;8.03;5.33;;;;;;;;;;5087273;28;20565;-62
2023/05/07 07:51:08;;;;;;;6.77;4.23;;;;;;;;;;5091437;28;20031;-61
2023/05/07 07:53:35;;;;;;;10.20;4.80;;;;;;;;;;5092500;28;20424;-62
2023/05/07 07:56:01;;;;;;;6.27;4.37;;;;;;;;;;5092232;28;20062;-61
2023/05/07 07:58:28;;;;;;;5.73;4.10;;;;;;;;;;5092185;28;20031;-61
2023/05/07 08:00:55;;;;;;;8.60;5.80;;;;;;;;;;5092293;28;20028;-61
2023/05/07 08:03:22;;;;;;;8.93;4.30;;;;;;;;;;5087611;28;20024;-61
2023/05/07 08:05:50;;;;;;;8.63;5.00;;;;;;;;;;5087206;28;20028;-62
2023/05/07 08:08:17;;;;;;;8.33;5.80;;;;;;;;;;5087153;28;20027;-61
2023/05/07 08:10:44;;;;;;;7.63;5.67;;;;;;;;;;5087167;28;20055;-61
2023/05/07 08:13:11;;;;;;;7.07;5.07;;;;;;;;;;5090344;28;20043;-62
2023/05/07 08:15:37;;;;;;;9.87;5.53;;;;;;;;;;5091974;28;20052;-62
2023/05/07 08:18:04;;;;;;;5.57;4.50;;;;;;;;;;5092141;28;20474;-61
2023/05/07 08:20:31;;;;;;;9.17;4.13;;;;;;;;;;5091551;28;20021;-61
2023/05/07 08:22:58;;;;;;;4.73;3.83;;;;;;;;;;5092087;28;20077;-61
2023/05/07 08:25:25;;;;;;;6.20;4.47;;;;;;;;;;5088179;28;20028;-62
2023/05/07 08:27:51;;;;;;;6.23;4.70;;;;;;;;;;5090694;28;20020;-62
2023/05/07 08:30:18;;;;;;;9.87;4.70;;;;;;;;;;5090417;28;20031;-61
2023/05/07 08:32:45;;;;;;;5.93;3.90;;;;;;;;;;5090779;28;20035;-61
2023/05/07 08:35:12;;;;;;;10.80;5.73;;;;;;;;;;5093339;28;20020;-62
2023/05/07 08:37:38;;;;;;;6.87;5.43;;;;;;;;;;5095318;28;20028;-62
2023/05/07 08:40:06;;;;;;;10.10;6.87;;;;;;;;;;5095707;28;20024;-61
2023/05/07 08:42:39;;;;;;;8.87;6.17;;;;;;;;;;5095471;28;20024;-62
2023/05/07 08:45:10;;;;;;;11.23;6.30;;;;;;;;;;5095536;28;20379;-61
2023/05/07 08:47:47;;;;;;;8.67;5.77;;;;;;;;;;5091975;28;20056;-62
2023/05/07 08:50:14;;;;;;;9.00;5.50;;;;;;;;;;5090057;28;20032;-61
2023/05/07 08:52:41;;;;;;;9.57;4.87;;;;;;;;;;5090207;28;20043;-62
2023/05/07 08:55:08;;;;;;;8.13;3.60;;;;;;;;;;5090397;28;20028;-61
2023/05/07 08:57:35;;;;;;;10.07;4.60;;;;;;;;;;5092989;28;20513;-62
2023/05/07 09:00:04;;;;;;;3.77;2.73;;;;;;;;;;5095279;28;20085;-61
2023/05/07 09:02:30;;;;;;;12.37;7.10;;;;;;;;;;5095125;28;20483;-61
2023/05/07 09:04:57;;;;;;;8.73;5.70;;;;;;;;;;5095309;28;20039;-61
2023/05/07 09:07:24;;;;;;;10.07;6.03;;;;;;;;;;5094993;28;20382;-61
2023/05/07 09:09:57;;;;;;;10.57;5.97;;;;;;;;;;5091907;28;20028;-62
2023/05/07 09:12:24;;;;;;;5.70;4.07;;;;;;;;;;5089898;28;20088;-61
2023/05/07 09:14:51;;;;;;;7.20;3.60;;;;;;;;;;5089870;28;20041;-62
2023/05/07 09:17:18;;;;;;;5.27;4.17;;;;;;;;;;5089796;28;20161;-61
2023/05/07 09:19:45;;;;;;;7.83;4.50;;;;;;;;;;5092322;28;20035;-61
2023/05/07 09:22:12;;;;;;;5.53;3.60;;;;;;;;;;5094594;28;20060;-61
2023/05/07 09:24:39;;;;;;;5.30;3.30;;;;;;;;;;5094400;28;20024;-63
2023/05/07 09:27:06;;;;;;;7.27;2.83;;;;;;;;;;5094658;28;20024;-61
2023/05/07 09:29:35;;;;;;;7.10;3.53;;;;;;;;;;5094558;28;20119;-61
2023/05/07 09:32:06;;;;;;;5.40;3.93;;;;;;;;;;5091661;28;20549;-61
2023/05/07 09:34:33;;;;;;;6.13;4.13;;;;;;;;;;5089612;28;20095;-61
2023/05/07 09:37:03;;;;;;;6.33;3.23;;;;;;;;;;5089509;28;20031;-61
2023/05/07 09:39:50;;;;;;;4.03;3.30;;;;;;;;;;5088346;28;20023;-61
2023/05/07 09:42:17;;;;;;;2.83;2.03;;;;;;;;;;5092147;28;20035;-62
2023/05/07 09:44:47;;;;;;;3.20;2.07;;;;;;;;;;5094423;28;20016;-62
2023/05/07 09:47:19;;;;;;;2.60;1.73;;;;;;;;;;5094393;28;20024;-61
2023/05/07 09:49:48;;;;;;;4.00;2.00;;;;;;;;;;5093736;28;20074;-61
2023/05/07 09:52:14;;;;;;;2.47;1.57;;;;;;;;;;5094333;28;20043;-61
2023/05/07 09:54:45;;;;;;;2.20;1.53;;;;;;;;;;5090776;28;20024;-61
2023/05/07 09:57:12;;;;;;;2.43;1.73;;;;;;;;;;5089132;28;20344;-61
2023/05/07 09:59:39;;;;;;;2.37;1.80;;;;;;;;;;5089162;28;20031;-61
2023/05/07 10:02:06;;;;;;;9.77;2.43;;;;;;;;;;5088956;28;20024;-61
2023/05/07 10:04:33;;;;;;;3.57;2.50;;;;;;;;;;5091473;28;20475;-61
2023/05/07 10:06:59;;;;;;;2.80;2.10;;;;;;;;;;5093882;28;20115;-61
2023/05/07 10:09:27;;;;;;;2.47;1.70;;;;;;;;;;5093901;28;20020;-62
2023/05/07 10:11:54;;;;;;;2.63;1.93;;;;;;;;;;5093740;28;20027;-61
2023/05/07 10:14:22;;;;;;;2.43;1.80;;;;;;;;;;5093688;28;20028;-61
2023/05/07 10:16:49;;;;;;;4.13;2.27;;;;;;;;;;5090764;28;20021;-62
2023/05/07 10:19:16;;;;;;;3.27;2.23;;;;;;;;;;5088679;28;20027;-62
2023/05/07 10:21:49;;;;;;;2.53;1.93;;;;;;;;;;5088456;28;20130;-61
2023/05/07 10:24:25;;;;;;;4.07;2.20;;;;;;;;;;5088608;28;20051;-61
2023/05/07 10:26:53;;;;;;;5.50;1.33;;;;;;;;;;5091265;28;20035;-61
2023/05/07 10:29:40;;;;;;;2.40;1.53;;;;;;;;;;5093312;28;20024;-61
2023/05/07 10:32:12;;;;;;;1.67;1.20;;;;;;;;;;5079083;28;20450;-61
2023/05/07 10:34:41;;;;;;;2.13;1.40;;;;;;;;;;5093638;28;20024;-61
2023/05/07 10:37:08;;;;;;;3.83;2.20;;;;;;;;;;5093522;28;20089;-61
2023/05/07 10:39:35;;;;;;;1.67;1.17;;;;;;;;;;5089423;28;20035;-61
2023/05/07 10:42:12;;;;;;;3.07;1.70;;;;;;;;;;5088286;28;20031;-61
2023/05/07 10:44:38;;;;;;;3.40;1.87;;;;;;;;;;5087852;28;20078;-61
2023/05/07 10:47:09;;;;;;;2.37;1.43;;;;;;;;;;5088084;28;20024;-61
2023/05/07 10:49:37;;;;;;;3.03;2.00;;;;;;;;;;5090961;28;20055;-61
2023/05/07 10:52:16;;;;;;;3.63;2.13;;;;;;;;;;5093170;28;20498;-61
2023/05/07 10:54:46;;;;;;;3.60;2.67;;;;;;;;;;5093115;28;20024;-61
2023/05/07 10:57:30;;;;;;;4.00;3.00;;;;;;;;;;5092593;28;20024;-61
2023/05/07 10:59:57;;;;;;;6.85;2.53;;;;;;;;;;5093177;28;20505;-61
2023/05/07 11:02:24;;;;;;;6.03;2.20;;;;;;;;;;5087862;28;20420;-61
2023/05/07 11:05:09;;;;;;;7.07;2.90;;;;;;;;;;5087713;28;20094;-61
2023/05/07 11:07:36;;;;;;;4.47;2.97;;;;;;;;;;5087671;28;20078;-61
2023/05/07 11:10:04;;;;;;;4.80;3.23;;;;;;;;;;5087591;28;20024;-61
2023/05/07 11:12:43;;;;;;;3.77;2.57;;;;;;;;;;5092722;28;20550;-61
2023/05/07 11:15:10;;;;;;;4.10;2.60;;;;;;;;;;5092682;28;20367;-61
2023/05/07 11:17:55;;;;;;;5.03;2.97;;;;;;;;;;5092690;28;20020;-61
2023/05/07 11:20:43;;;;;;;5.10;3.30;;;;;;;;;;5092336;28;20052;-60
2023/05/07 11:23:30;;;;;;;5.73;3.50;;;;;;;;;;5090625;28;20074;-61
2023/05/07 11:26:07;;;;;;;2.03;1.60;;;;;;;;;;5087472;28;20036;-61
2023/05/07 11:28:41;;;;;;;4.43;2.77;;;;;;;;;;5087529;28;20104;-61
2023/05/07 11:31:09;;;;;;;5.10;3.15;;;;;;;;;;5087434;28;20039;-61
2023/05/07 11:33:36;;;;;;;4.60;3.50;;;;;;;;;;5089738;28;20020;-61
2023/05/07 11:36:04;;;;;;;5.63;4.07;;;;;;;;;;5092427;28;20378;-61
2023/05/07 11:38:31;;;;;;;5.70;3.90;;;;;;;;;;5092321;28;20085;-61
2023/05/07 11:41:00;;;;;;;5.97;3.70;;;;;;;;;;5092506;28;20028;-61
2023/05/07 11:43:27;;;;;;;5.43;4.10;;;;;;;;;;5092573;28;20020;-62
2023/05/07 11:45:54;;;;;;;5.87;3.83;;;;;;;;;;5089763;28;20030;-60
2023/05/07 11:48:22;;;;;;;9.63;3.63;;;;;;;;;;5087504;28;20028;-61
2023/05/07 11:50:53;;;;;;;7.83;3.07;;;;;;;;;;5087269;28;20027;-61
2023/05/07 11:53:20;;;;;;;10.53;3.30;;;;;;;;;;5086784;28;20475;-61
2023/05/07 11:55:47;;;;;;;4.90;2.93;;;;;;;;;;5089185;28;20103;-61
2023/05/07 11:58:21;;;;;;;5.63;3.33;;;;;;;;;;5092358;28;20024;-61
2023/05/07 12:00:54;;;;;;;5.53;3.53;;;;;;;;;;5092619;28;20091;-61
2023/05/07 12:03:22;;;;;;;8.47;4.27;;;;;;;;;;5096389;28;20024;-61
2023/05/07 12:05:49;;;;;;;5.47;3.97;;;;;;;;;;5095969;28;20035;-61
2023/05/07 12:08:16;;;;;;;8.40;4.13;;;;;;;;;;5093435;28;20024;-61
2023/05/07 12:10:44;;;;;;;6.73;4.20;;;;;;;;;;5091129;28;20349;-61
2023/05/07 12:13:17;;;;;;;4.40;2.87;;;;;;;;;;5090693;28;20486;-61
2023/05/07 12:15:44;;;;;;;3.93;2.97;;;;;;;;;;5091007;28;20382;-61
2023/05/07 12:18:11;;;;;;;7.10;4.33;;;;;;;;;;5093163;28;20509;-61
2023/05/07 12:20:39;;;;;;;6.73;4.03;;;;;;;;;;5096005;28;20058;-61
2023/05/07 12:23:06;;;;;;;6.93;4.00;;;;;;;;;;5095509;28;20482;-61
2023/05/07 12:25:33;;;;;;;9.77;4.13;;;;;;;;;;5095775;28;20093;-61
2023/05/07 12:28:01;;;;;;;7.43;3.90;;;;;;;;;;5095790;28;20026;-61
2023/05/07 12:30:28;;;;;;;6.97;3.50;;;;;;;;;;5092774;28;20042;-61
2023/05/07 12:32:55;;;;;;;4.60;2.70;;;;;;;;;;5090733;28;20031;-61
2023/05/07 12:35:29;;;;;;;7.30;4.37;;;;;;;;;;5090542;28;20020;-61
2023/05/07 12:37:56;;;;;;;3.23;2.33;;;;;;;;;;5090098;28;20511;-61
2023/05/07 12:40:23;;;;;;;9.50;2.93;;;;;;;;;;5092539;28;20028;-61
2023/05/07 12:42:55;;;;;;;5.70;3.30;;;;;;;;;;5095463;28;20024;-61
2023/05/07 12:45:21;;;;;;;3.23;2.57;;;;;;;;;;5095483;28;20023;-61
2023/05/07 12:47:49;;;;;;;2.23;1.80;;;;;;;;;;5095204;28;20085;-61
2023/05/07 12:50:16;;;;;;;5.03;2.73;;;;;;;;;;5095477;28;20024;-61
2023/05/07 12:52:44;;;;;;;6.70;3.47;;;;;;;;;;5092303;28;20522;-61
2023/05/07 12:55:14;;;;;;;10.50;3.53;;;;;;;;;;5090151;28;20081;-62
2023/05/07 12:57:42;;;;;;;5.90;2.83;;;;;;;;;;5090027;28;20051;-62
2023/05/07 13:00:10;;;;;;;4.70;2.93;;;;;;;;;;5090143;28;20016;-61
2023/05/07 13:02:40;;;;;;;4.03;2.60;;;;;;;;;;5092143;28;20016;-61
2023/05/07 13:05:07;;;;;;;4.83;3.43;;;;;;;;;;5094868;28;20028;-62
2023/05/07 13:07:34;;;;;;;4.17;3.27;;;;;;;;;;5094703;28;20062;-61
2023/05/07 13:10:01;;;;;;;5.87;2.90;;;;;;;;;;5095121;28;20028;-61
2023/05/07 13:12:28;;;;;;;5.47;3.60;;;;;;;;;;5094149;28;20024;-62
2023/05/07 13:14:55;;;;;;;10.77;2.87;;;;;;;;;;5092475;28;20032;-62
2023/05/07 13:17:21;;;;;;;15.37;2.90;;;;;;;;;;5089924;28;20158;-61
2023/05/07 13:19:48;;;;;;;7.13;3.63;;;;;;;;;;5089771;28;20028;-61
2023/05/07 13:22:15;;;;;;;7.40;3.87;;;;;;;;;;5089562;28;20028;-62
2023/05/07 13:24:43;;;;;;;12.77;3.27;;;;;;;;;;5090723;28;20020;-62
2023/05/07 13:27:10;;;;;;;7.43;3.13;;;;;;;;;;5094730;28;20028;-61
2023/05/07 13:29:36;;;;;;;6.97;2.80;;;;;;;;;;5094581;28;20536;-61
2023/05/07 13:32:03;;;;;;;6.07;2.90;;;;;;;;;;5094638;28;20386;-62
2023/05/07 13:34:30;;;;;;;3.97;2.43;;;;;;;;;;5094662;28;20020;-61
2023/05/07 13:36:57;;;;;;;3.27;2.33;;;;;;;;;;5092757;28;20016;-62
2023/05/07 13:39:24;;;;;;;4.90;2.70;;;;;;;;;;5089157;28;20466;-61
2023/05/07 13:41:50;;;;;;;3.97;2.43;;;;;;;;;;5088920;28;20024;-62
2023/05/07 13:44:17;;;;;;;8.53;2.00;;;;;;;;;;5089299;28;20074;-62
2023/05/07 13:46:45;;;;;;;3.97;1.93;;;;;;;;;;5090174;28;20479;-61
2023/05/07 13:49:12;;;;;;;6.77;3.43;;;;;;;;;;5094074;28;20054;-62
2023/05/07 13:51:39;;;;;;;4.00;2.83;;;;;;;;;;5094280;28;20030;-63
2023/05/07 13:54:06;;;;;;;6.27;2.93;;;;;;;;;;5094182;28;20056;-62
2023/05/07 13:56:33;;;;;;;22.80;5.63;;;;;;;;;;5093843;28;20165;-62
2023/05/07 13:58:59;;;;;;;5.67;3.50;;;;;;;;;;5092463;28;20479;-62
2023/05/07 14:01:26;;;;;;;6.00;3.83;;;;;;;;;;5088790;28;20073;-62
2023/05/07 14:03:53;;;;;;;7.53;4.40;;;;;;;;;;5088880;28;20025;-62
2023/05/07 14:06:20;;;;;;;5.97;3.30;;;;;;;;;;5088856;28;20312;-62
2023/05/07 14:08:46;;;;;;;5.97;3.07;;;;;;;;;;5089274;28;20143;-63
2023/05/07 14:11:13;;;;;;;4.03;2.63;;;;;;;;;;5093817;28;20370;-62
2023/05/07 14:13:40;;;;;;;9.17;3.47;;;;;;;;;;5093394;28;20024;-62
2023/05/07 14:16:07;;;;;;;5.70;2.80;;;;;;;;;;5093309;28;20016;-62
2023/05/07 14:18:36;;;;;;;2.63;2.00;;;;;;;;;;5093440;28;20028;-63
2023/05/07 14:21:03;;;;;;;7.17;3.80;;;;;;;;;;5092874;28;20106;-62
2023/05/07 14:23:31;;;;;;;5.77;3.20;;;;;;;;;;5088471;28;20398;-63
2023/05/07 14:25:57;;;;;;;7.87;4.37;;;;;;;;;;5088257;28;20103;-63
2023/05/07 14:28:24;;;;;;;6.37;3.80;;;;;;;;;;5088466;28;20028;-63
2023/05/07 14:30:51;;;;;;;10.63;4.40;;;;;;;;;;5087831;28;20028;-62
2023/05/07 14:33:18;;;;;;;8.30;5.00;;;;;;;;;;5093443;28;20028;-62
2023/05/07 14:35:48;;;;;;;7.00;4.50;;;;;;;;;;5093267;28;20024;-63
2023/05/07 14:38:15;;;;;;;5.83;3.97;;;;;;;;;;5093349;28;20386;-63
2023/05/07 14:40:42;;;;;;;6.83;4.33;;;;;;;;;;5093226;28;20474;-63